sensor_id;sensor_type;location;lat;lon;timestamp;P1;durP1;ratioP1;P2;durP2;ratioP2
33104;SDS011;19476;51.448;6.674;2022-11-21T00:00:43;15.45;;;9.00;;
33104;SDS011;19476;51.448;6.674;2022-11-21T00:03:10;13.07;;;7.45;;
33104;SDS011;19476;51.448;6.674;2022-11-21T00:05:40;13.10;;;8.68;;
33104;SDS011;19476;51.448;6.674;2022-11-21T00:08:08;14.23;;;8.60;;
33104;SDS011;19476;51.448;6.674;2022-11-21T00:10:36;14.85;;;8.85;;
33104;SDS011;19476;51.448;6.674;2022-11-21T00:13:05;16.83;;;9.70;;
33104;SDS011;19476;51.448;6.674;2022-11-21T00:15:31;17.90;;;10.27;;
33104;SDS011;19476;51.448;6.674;2022-11-21T00:18:00;19.98;;;10.35;;
33104;SDS011;19476;51.448;6.674;2022-11-21T00:20:27;21.65;;;11.48;;
33104;SDS011;19476;51.448;6.674;2022-11-21T00:22:53;21.00;;;11.48;;
33104;SDS011;19476;51.448;6.674;2022-11-21T00:25:19;23.08;;;12.35;;
33104;SDS011;19476;51.448;6.674;2022-11-21T00:27:45;22.08;;;12.40;;
33104;SDS011;19476;51.448;6.674;2022-11-21T00:30:11;24.63;;;13.07;;
33104;SDS011;19476;51.448;6.674;2022-11-21T00:32:37;25.20;;;12.82;;
33104;SDS011;19476;51.448;6.674;2022-11-21T00:35:04;24.25;;;13.63;;
33104;SDS011;19476;51.448;6.674;2022-11-21T00:37:30;24.45;;;13.73;;
33104;SDS011;19476;51.448;6.674;2022-11-21T00:39:57;23.60;;;13.82;;
33104;SDS011;19476;51.448;6.674;2022-11-21T00:42:23;24.95;;;13.45;;
33104;SDS011;19476;51.448;6.674;2022-11-21T00:44:49;22.20;;;12.48;;
33104;SDS011;19476;51.448;6.674;2022-11-21T00:47:15;26.42;;;13.63;;
33104;SDS011;19476;51.448;6.674;2022-11-21T00:49:41;26.17;;;14.07;;
33104;SDS011;19476;51.448;6.674;2022-11-21T00:52:07;23.80;;;13.40;;
33104;SDS011;19476;51.448;6.674;2022-11-21T00:54:33;26.42;;;13.68;;
33104;SDS011;19476;51.448;6.674;2022-11-21T00:56:59;25.17;;;13.73;;
33104;SDS011;19476;51.448;6.674;2022-11-21T00:59:25;27.95;;;15.40;;
33104;SDS011;19476;51.448;6.674;2022-11-21T01:01:51;32.10;;;15.98;;
33104;SDS011;19476;51.448;6.674;2022-11-21T01:04:16;27.85;;;15.10;;
33104;SDS011;19476;51.448;6.674;2022-11-21T01:06:43;30.67;;;14.70;;
33104;SDS011;19476;51.448;6.674;2022-11-21T01:09:09;31.08;;;14.98;;
33104;SDS011;19476;51.448;6.674;2022-11-21T01:11:35;26.92;;;14.52;;
33104;SDS011;19476;51.448;6.674;2022-11-21T01:14:00;28.33;;;14.88;;
33104;SDS011;19476;51.448;6.674;2022-11-21T01:16:27;27.35;;;13.52;;
33104;SDS011;19476;51.448;6.674;2022-11-21T01:18:53;26.88;;;14.90;;
33104;SDS011;19476;51.448;6.674;2022-11-21T01:21:21;27.42;;;13.63;;
33104;SDS011;19476;51.448;6.674;2022-11-21T01:23:48;27.70;;;14.32;;
33104;SDS011;19476;51.448;6.674;2022-11-21T01:26:19;24.58;;;12.85;;
33104;SDS011;19476;51.448;6.674;2022-11-21T01:28:49;24.92;;;13.85;;
33104;SDS011;19476;51.448;6.674;2022-11-21T01:31:16;27.23;;;14.05;;
33104;SDS011;19476;51.448;6.674;2022-11-21T01:33:44;24.92;;;12.65;;
33104;SDS011;19476;51.448;6.674;2022-11-21T01:38:44;28.17;;;14.73;;
33104;SDS011;19476;51.448;6.674;2022-11-21T01:41:14;25.98;;;13.55;;
33104;SDS011;19476;51.448;6.674;2022-11-21T01:43:41;27.13;;;13.93;;
33104;SDS011;19476;51.448;6.674;2022-11-21T01:51:07;30.98;;;15.10;;
33104;SDS011;19476;51.448;6.674;2022-11-21T01:53:40;27.33;;;14.10;;
33104;SDS011;19476;51.448;6.674;2022-11-21T01:56:08;30.75;;;15.85;;
33104;SDS011;19476;51.448;6.674;2022-11-21T01:58:35;27.30;;;14.18;;
33104;SDS011;19476;51.448;6.674;2022-11-21T02:01:03;29.58;;;15.43;;
33104;SDS011;19476;51.448;6.674;2022-11-21T02:03:30;30.55;;;15.93;;
33104;SDS011;19476;51.448;6.674;2022-11-21T02:05:59;26.95;;;13.68;;
33104;SDS011;19476;51.448;6.674;2022-11-21T02:08:26;33.03;;;15.07;;
33104;SDS011;19476;51.448;6.674;2022-11-21T02:11:00;28.85;;;14.57;;
33104;SDS011;19476;51.448;6.674;2022-11-21T02:13:36;31.75;;;15.45;;
33104;SDS011;19476;51.448;6.674;2022-11-21T02:16:02;28.48;;;14.27;;
33104;SDS011;19476;51.448;6.674;2022-11-21T02:18:28;28.15;;;13.27;;
33104;SDS011;19476;51.448;6.674;2022-11-21T02:20:56;29.83;;;13.85;;
33104;SDS011;19476;51.448;6.674;2022-11-21T02:26:31;24.88;;;12.93;;
33104;SDS011;19476;51.448;6.674;2022-11-21T02:28:57;30.13;;;14.65;;
33104;SDS011;19476;51.448;6.674;2022-11-21T02:31:23;23.95;;;13.05;;
33104;SDS011;19476;51.448;6.674;2022-11-21T02:33:49;23.38;;;12.55;;
33104;SDS011;19476;51.448;6.674;2022-11-21T02:39:12;23.52;;;12.32;;
33104;SDS011;19476;51.448;6.674;2022-11-21T02:41:45;20.05;;;11.40;;
33104;SDS011;19476;51.448;6.674;2022-11-21T02:44:21;20.50;;;10.90;;
33104;SDS011;19476;51.448;6.674;2022-11-21T02:46:52;19.23;;;10.75;;
33104;SDS011;19476;51.448;6.674;2022-11-21T02:49:20;18.25;;;10.10;;
33104;SDS011;19476;51.448;6.674;2022-11-21T02:51:54;16.92;;;10.18;;
33104;SDS011;19476;51.448;6.674;2022-11-21T02:54:20;14.73;;;8.65;;
33104;SDS011;19476;51.448;6.674;2022-11-21T02:56:46;18.67;;;9.98;;
33104;SDS011;19476;51.448;6.674;2022-11-21T02:59:11;25.85;;;12.48;;
33104;SDS011;19476;51.448;6.674;2022-11-21T03:01:37;27.42;;;12.45;;
33104;SDS011;19476;51.448;6.674;2022-11-21T03:04:03;19.98;;;10.93;;
33104;SDS011;19476;51.448;6.674;2022-11-21T03:06:29;18.73;;;10.85;;
33104;SDS011;19476;51.448;6.674;2022-11-21T03:08:54;17.38;;;10.13;;
33104;SDS011;19476;51.448;6.674;2022-11-21T03:11:20;17.92;;;9.60;;
33104;SDS011;19476;51.448;6.674;2022-11-21T03:13:46;15.68;;;9.13;;
33104;SDS011;19476;51.448;6.674;2022-11-21T03:16:12;15.90;;;9.77;;
33104;SDS011;19476;51.448;6.674;2022-11-21T03:18:38;15.27;;;8.65;;
33104;SDS011;19476;51.448;6.674;2022-11-21T03:21:03;15.75;;;9.15;;
33104;SDS011;19476;51.448;6.674;2022-11-21T03:23:29;16.08;;;9.43;;
33104;SDS011;19476;51.448;6.674;2022-11-21T03:25:55;14.63;;;8.90;;
33104;SDS011;19476;51.448;6.674;2022-11-21T03:28:22;16.30;;;9.27;;
33104;SDS011;19476;51.448;6.674;2022-11-21T03:30:48;15.68;;;9.40;;
33104;SDS011;19476;51.448;6.674;2022-11-21T03:33:14;16.92;;;9.07;;
33104;SDS011;19476;51.448;6.674;2022-11-21T03:35:40;15.80;;;8.65;;
33104;SDS011;19476;51.448;6.674;2022-11-21T03:38:05;17.05;;;9.50;;
33104;SDS011;19476;51.448;6.674;2022-11-21T03:40:31;16.95;;;8.25;;
33104;SDS011;19476;51.448;6.674;2022-11-21T03:43:02;17.98;;;9.60;;
33104;SDS011;19476;51.448;6.674;2022-11-21T03:45:29;15.05;;;7.88;;
33104;SDS011;19476;51.448;6.674;2022-11-21T03:47:55;16.50;;;9.02;;
33104;SDS011;19476;51.448;6.674;2022-11-21T03:50:21;17.10;;;8.68;;
33104;SDS011;19476;51.448;6.674;2022-11-21T03:52:46;13.07;;;6.90;;
33104;SDS011;19476;51.448;6.674;2022-11-21T03:55:12;14.52;;;7.22;;
33104;SDS011;19476;51.448;6.674;2022-11-21T03:57:39;14.68;;;7.82;;
33104;SDS011;19476;51.448;6.674;2022-11-21T04:00:05;17.77;;;9.07;;
33104;SDS011;19476;51.448;6.674;2022-11-21T04:02:31;17.38;;;8.25;;
33104;SDS011;19476;51.448;6.674;2022-11-21T04:04:57;14.15;;;8.05;;
33104;SDS011;19476;51.448;6.674;2022-11-21T04:07:23;17.30;;;8.40;;
33104;SDS011;19476;51.448;6.674;2022-11-21T04:09:49;15.13;;;8.30;;
33104;SDS011;19476;51.448;6.674;2022-11-21T04:12:15;17.05;;;8.25;;
33104;SDS011;19476;51.448;6.674;2022-11-21T04:14:41;15.10;;;8.10;;
33104;SDS011;19476;51.448;6.674;2022-11-21T04:17:07;13.93;;;7.65;;
33104;SDS011;19476;51.448;6.674;2022-11-21T04:19:33;14.10;;;7.00;;
33104;SDS011;19476;51.448;6.674;2022-11-21T04:21:58;13.32;;;6.97;;
33104;SDS011;19476;51.448;6.674;2022-11-21T04:24:25;13.07;;;7.50;;
33104;SDS011;19476;51.448;6.674;2022-11-21T04:26:50;12.48;;;6.30;;
33104;SDS011;19476;51.448;6.674;2022-11-21T04:29:19;10.90;;;5.68;;
33104;SDS011;19476;51.448;6.674;2022-11-21T04:31:44;13.52;;;6.65;;
33104;SDS011;19476;51.448;6.674;2022-11-21T04:34:10;11.85;;;5.93;;
33104;SDS011;19476;51.448;6.674;2022-11-21T04:36:36;13.45;;;6.40;;
33104;SDS011;19476;51.448;6.674;2022-11-21T04:39:02;12.07;;;6.18;;
33104;SDS011;19476;51.448;6.674;2022-11-21T04:41:28;11.25;;;6.10;;
33104;SDS011;19476;51.448;6.674;2022-11-21T04:43:54;12.40;;;7.07;;
33104;SDS011;19476;51.448;6.674;2022-11-21T04:46:20;11.23;;;6.35;;
33104;SDS011;19476;51.448;6.674;2022-11-21T04:48:46;10.95;;;5.63;;
33104;SDS011;19476;51.448;6.674;2022-11-21T04:51:12;12.10;;;6.47;;
33104;SDS011;19476;51.448;6.674;2022-11-21T04:53:38;16.13;;;7.00;;
33104;SDS011;19476;51.448;6.674;2022-11-21T04:56:04;12.63;;;6.78;;
33104;SDS011;19476;51.448;6.674;2022-11-21T04:58:31;12.98;;;7.07;;
33104;SDS011;19476;51.448;6.674;2022-11-21T05:00:56;12.55;;;7.20;;
33104;SDS011;19476;51.448;6.674;2022-11-21T05:03:23;15.73;;;7.90;;
33104;SDS011;19476;51.448;6.674;2022-11-21T05:05:48;12.98;;;6.80;;
33104;SDS011;19476;51.448;6.674;2022-11-21T05:08:14;11.70;;;6.65;;
33104;SDS011;19476;51.448;6.674;2022-11-21T05:10:40;13.55;;;7.32;;
33104;SDS011;19476;51.448;6.674;2022-11-21T05:13:43;13.57;;;6.63;;
33104;SDS011;19476;51.448;6.674;2022-11-21T05:16:09;12.55;;;6.80;;
33104;SDS011;19476;51.448;6.674;2022-11-21T05:18:35;13.52;;;7.25;;
33104;SDS011;19476;51.448;6.674;2022-11-21T05:21:01;16.13;;;8.48;;
33104;SDS011;19476;51.448;6.674;2022-11-21T05:23:27;14.60;;;7.20;;
33104;SDS011;19476;51.448;6.674;2022-11-21T05:25:53;14.18;;;7.68;;
33104;SDS011;19476;51.448;6.674;2022-11-21T05:28:19;13.30;;;7.32;;
33104;SDS011;19476;51.448;6.674;2022-11-21T05:30:45;14.85;;;7.70;;
33104;SDS011;19476;51.448;6.674;2022-11-21T05:33:10;15.50;;;8.27;;
33104;SDS011;19476;51.448;6.674;2022-11-21T05:35:36;14.93;;;7.50;;
33104;SDS011;19476;51.448;6.674;2022-11-21T05:38:02;13.23;;;7.22;;
33104;SDS011;19476;51.448;6.674;2022-11-21T05:40:28;16.42;;;8.70;;
33104;SDS011;19476;51.448;6.674;2022-11-21T05:42:54;16.40;;;7.80;;
33104;SDS011;19476;51.448;6.674;2022-11-21T05:45:38;14.00;;;7.75;;
33104;SDS011;19476;51.448;6.674;2022-11-21T05:48:04;13.57;;;7.40;;
33104;SDS011;19476;51.448;6.674;2022-11-21T05:50:32;14.43;;;7.95;;
33104;SDS011;19476;51.448;6.674;2022-11-21T05:53:02;16.52;;;9.65;;
33104;SDS011;19476;51.448;6.674;2022-11-21T05:55:29;15.48;;;9.13;;
33104;SDS011;19476;51.448;6.674;2022-11-21T05:57:58;15.18;;;8.38;;
33104;SDS011;19476;51.448;6.674;2022-11-21T06:00:24;15.13;;;8.43;;
33104;SDS011;19476;51.448;6.674;2022-11-21T06:02:51;14.38;;;8.02;;
33104;SDS011;19476;51.448;6.674;2022-11-21T06:05:49;15.43;;;8.43;;
33104;SDS011;19476;51.448;6.674;2022-11-21T06:08:15;17.38;;;8.93;;
33104;SDS011;19476;51.448;6.674;2022-11-21T06:10:41;16.63;;;9.05;;
33104;SDS011;19476;51.448;6.674;2022-11-21T06:13:07;16.67;;;8.32;;
33104;SDS011;19476;51.448;6.674;2022-11-21T06:15:46;15.07;;;7.53;;
33104;SDS011;19476;51.448;6.674;2022-11-21T06:18:14;14.57;;;7.93;;
33104;SDS011;19476;51.448;6.674;2022-11-21T06:20:40;15.05;;;8.52;;
33104;SDS011;19476;51.448;6.674;2022-11-21T06:23:06;18.80;;;9.05;;
33104;SDS011;19476;51.448;6.674;2022-11-21T06:25:32;15.27;;;8.90;;
33104;SDS011;19476;51.448;6.674;2022-11-21T06:27:58;14.82;;;8.15;;
33104;SDS011;19476;51.448;6.674;2022-11-21T06:30:24;16.30;;;8.50;;
33104;SDS011;19476;51.448;6.674;2022-11-21T06:32:50;17.55;;;8.85;;
33104;SDS011;19476;51.448;6.674;2022-11-21T06:35:16;15.70;;;8.52;;
33104;SDS011;19476;51.448;6.674;2022-11-21T06:37:41;16.02;;;8.20;;
33104;SDS011;19476;51.448;6.674;2022-11-21T06:40:07;15.38;;;8.02;;
33104;SDS011;19476;51.448;6.674;2022-11-21T06:42:33;14.82;;;8.70;;
33104;SDS011;19476;51.448;6.674;2022-11-21T06:44:59;14.93;;;8.02;;
33104;SDS011;19476;51.448;6.674;2022-11-21T06:47:25;15.52;;;8.63;;
33104;SDS011;19476;51.448;6.674;2022-11-21T06:49:51;15.27;;;8.77;;
33104;SDS011;19476;51.448;6.674;2022-11-21T06:52:17;14.07;;;7.75;;
33104;SDS011;19476;51.448;6.674;2022-11-21T06:54:43;14.50;;;7.82;;
33104;SDS011;19476;51.448;6.674;2022-11-21T06:57:08;14.27;;;7.47;;
33104;SDS011;19476;51.448;6.674;2022-11-21T06:59:34;12.65;;;7.30;;
33104;SDS011;19476;51.448;6.674;2022-11-21T07:02:00;13.93;;;7.35;;
33104;SDS011;19476;51.448;6.674;2022-11-21T07:04:26;16.42;;;8.18;;
33104;SDS011;19476;51.448;6.674;2022-11-21T07:06:52;14.07;;;8.07;;
33104;SDS011;19476;51.448;6.674;2022-11-21T07:09:17;13.48;;;8.25;;
33104;SDS011;19476;51.448;6.674;2022-11-21T07:11:43;16.30;;;8.07;;
33104;SDS011;19476;51.448;6.674;2022-11-21T07:14:09;14.20;;;7.70;;
33104;SDS011;19476;51.448;6.674;2022-11-21T07:16:35;15.18;;;8.00;;
33104;SDS011;19476;51.448;6.674;2022-11-21T07:19:01;17.15;;;9.02;;
33104;SDS011;19476;51.448;6.674;2022-11-21T07:21:27;14.40;;;7.78;;
33104;SDS011;19476;51.448;6.674;2022-11-21T07:23:53;17.10;;;8.50;;
33104;SDS011;19476;51.448;6.674;2022-11-21T07:26:19;16.27;;;8.68;;
33104;SDS011;19476;51.448;6.674;2022-11-21T07:28:44;16.63;;;8.45;;
33104;SDS011;19476;51.448;6.674;2022-11-21T07:31:10;15.32;;;8.60;;
33104;SDS011;19476;51.448;6.674;2022-11-21T07:33:36;16.90;;;9.18;;
33104;SDS011;19476;51.448;6.674;2022-11-21T07:36:02;20.00;;;9.75;;
33104;SDS011;19476;51.448;6.674;2022-11-21T07:38:28;19.10;;;9.68;;
33104;SDS011;19476;51.448;6.674;2022-11-21T07:40:57;19.67;;;9.85;;
33104;SDS011;19476;51.448;6.674;2022-11-21T07:43:23;20.13;;;10.52;;
33104;SDS011;19476;51.448;6.674;2022-11-21T07:45:49;17.85;;;9.90;;
33104;SDS011;19476;51.448;6.674;2022-11-21T07:48:14;18.98;;;9.70;;
33104;SDS011;19476;51.448;6.674;2022-11-21T07:50:41;18.23;;;9.23;;
33104;SDS011;19476;51.448;6.674;2022-11-21T07:53:08;21.27;;;10.52;;
33104;SDS011;19476;51.448;6.674;2022-11-21T07:55:35;21.92;;;10.85;;
33104;SDS011;19476;51.448;6.674;2022-11-21T07:58:04;24.23;;;11.57;;
33104;SDS011;19476;51.448;6.674;2022-11-21T08:00:44;22.38;;;11.38;;
33104;SDS011;19476;51.448;6.674;2022-11-21T08:03:10;25.08;;;12.38;;
33104;SDS011;19476;51.448;6.674;2022-11-21T08:05:37;25.77;;;12.73;;
33104;SDS011;19476;51.448;6.674;2022-11-21T08:08:04;26.33;;;12.18;;
33104;SDS011;19476;51.448;6.674;2022-11-21T08:10:31;25.33;;;12.95;;
33104;SDS011;19476;51.448;6.674;2022-11-21T08:12:57;28.13;;;12.63;;
33104;SDS011;19476;51.448;6.674;2022-11-21T08:15:23;26.17;;;11.95;;
33104;SDS011;19476;51.448;6.674;2022-11-21T08:17:48;26.08;;;12.82;;
33104;SDS011;19476;51.448;6.674;2022-11-21T08:20:14;32.63;;;13.00;;
33104;SDS011;19476;51.448;6.674;2022-11-21T08:22:41;29.30;;;12.93;;
33104;SDS011;19476;51.448;6.674;2022-11-21T08:25:08;25.42;;;11.55;;
33104;SDS011;19476;51.448;6.674;2022-11-21T08:27:38;26.98;;;12.18;;
33104;SDS011;19476;51.448;6.674;2022-11-21T08:30:08;32.17;;;14.00;;
33104;SDS011;19476;51.448;6.674;2022-11-21T08:32:35;27.65;;;12.88;;
33104;SDS011;19476;51.448;6.674;2022-11-21T08:35:01;25.08;;;12.25;;
33104;SDS011;19476;51.448;6.674;2022-11-21T08:37:27;25.73;;;12.23;;
33104;SDS011;19476;51.448;6.674;2022-11-21T08:39:54;30.90;;;12.85;;
33104;SDS011;19476;51.448;6.674;2022-11-21T08:42:20;26.08;;;12.38;;
33104;SDS011;19476;51.448;6.674;2022-11-21T08:44:45;29.40;;;13.02;;
33104;SDS011;19476;51.448;6.674;2022-11-21T08:47:11;29.85;;;13.57;;
33104;SDS011;19476;51.448;6.674;2022-11-21T08:49:37;30.90;;;13.95;;
33104;SDS011;19476;51.448;6.674;2022-11-21T08:52:03;30.35;;;13.30;;
33104;SDS011;19476;51.448;6.674;2022-11-21T08:54:28;28.42;;;12.93;;
33104;SDS011;19476;51.448;6.674;2022-11-21T08:56:54;24.85;;;13.02;;
33104;SDS011;19476;51.448;6.674;2022-11-21T08:59:20;29.42;;;12.82;;
33104;SDS011;19476;51.448;6.674;2022-11-21T09:01:46;26.83;;;12.80;;
33104;SDS011;19476;51.448;6.674;2022-11-21T09:04:11;26.30;;;12.90;;
33104;SDS011;19476;51.448;6.674;2022-11-21T09:06:37;28.83;;;13.27;;
33104;SDS011;19476;51.448;6.674;2022-11-21T09:09:04;27.65;;;11.88;;
33104;SDS011;19476;51.448;6.674;2022-11-21T09:11:31;22.15;;;11.95;;
33104;SDS011;19476;51.448;6.674;2022-11-21T09:13:57;25.75;;;11.70;;
33104;SDS011;19476;51.448;6.674;2022-11-21T09:16:41;19.88;;;9.95;;
33104;SDS011;19476;51.448;6.674;2022-11-21T09:19:26;22.00;;;11.00;;
33104;SDS011;19476;51.448;6.674;2022-11-21T09:21:51;25.42;;;11.27;;
33104;SDS011;19476;51.448;6.674;2022-11-21T09:24:17;20.67;;;10.25;;
33104;SDS011;19476;51.448;6.674;2022-11-21T09:26:44;20.58;;;10.43;;
33104;SDS011;19476;51.448;6.674;2022-11-21T09:29:10;19.95;;;9.80;;
33104;SDS011;19476;51.448;6.674;2022-11-21T09:31:36;18.33;;;9.85;;
33104;SDS011;19476;51.448;6.674;2022-11-21T09:34:02;19.08;;;10.05;;
33104;SDS011;19476;51.448;6.674;2022-11-21T09:36:28;16.23;;;8.55;;
33104;SDS011;19476;51.448;6.674;2022-11-21T09:38:54;17.70;;;8.88;;
33104;SDS011;19476;51.448;6.674;2022-11-21T09:46:48;15.63;;;7.90;;
33104;SDS011;19476;51.448;6.674;2022-11-21T09:49:17;12.40;;;6.60;;
33104;SDS011;19476;51.448;6.674;2022-11-21T09:51:43;13.52;;;7.07;;
33104;SDS011;19476;51.448;6.674;2022-11-21T09:56:50;10.95;;;5.43;;
33104;SDS011;19476;51.448;6.674;2022-11-21T10:02:01;9.95;;;5.85;;
33104;SDS011;19476;51.448;6.674;2022-11-21T10:04:35;9.38;;;5.60;;
33104;SDS011;19476;51.448;6.674;2022-11-21T10:29:49;6.40;;;3.97;;
33104;SDS011;19476;51.448;6.674;2022-11-21T10:32:23;8.73;;;4.78;;
33104;SDS011;19476;51.448;6.674;2022-11-21T10:35:03;6.78;;;4.07;;
33104;SDS011;19476;51.448;6.674;2022-11-21T10:37:48;6.45;;;3.92;;
33104;SDS011;19476;51.448;6.674;2022-11-21T10:42:57;7.93;;;3.72;;
33104;SDS011;19476;51.448;6.674;2022-11-21T10:46:03;6.13;;;3.42;;
33104;SDS011;19476;51.448;6.674;2022-11-21T10:48:29;7.30;;;4.10;;
33104;SDS011;19476;51.448;6.674;2022-11-21T10:51:16;7.05;;;3.55;;
33104;SDS011;19476;51.448;6.674;2022-11-21T10:54:06;8.20;;;3.58;;
33104;SDS011;19476;51.448;6.674;2022-11-21T10:56:55;8.18;;;3.78;;
33104;SDS011;19476;51.448;6.674;2022-11-21T10:59:57;7.60;;;3.25;;
33104;SDS011;19476;51.448;6.674;2022-11-21T11:02:57;26.33;;;12.45;;
33104;SDS011;19476;51.448;6.674;2022-11-21T11:05:31;21.73;;;12.15;;
33104;SDS011;19476;51.448;6.674;2022-11-21T11:08:12;16.75;;;11.45;;
33104;SDS011;19476;51.448;6.674;2022-11-21T11:10:39;23.95;;;17.80;;
33104;SDS011;19476;51.448;6.674;2022-11-21T11:18:28;10.77;;;4.60;;
33104;SDS011;19476;51.448;6.674;2022-11-21T11:21:08;10.68;;;5.40;;
33104;SDS011;19476;51.448;6.674;2022-11-21T11:23:45;8.07;;;4.03;;
33104;SDS011;19476;51.448;6.674;2022-11-21T11:26:28;8.70;;;3.70;;
33104;SDS011;19476;51.448;6.674;2022-11-21T11:34:27;6.53;;;3.67;;
33104;SDS011;19476;51.448;6.674;2022-11-21T11:45:49;15.45;;;7.20;;
33104;SDS011;19476;51.448;6.674;2022-11-21T11:48:51;32.80;;;15.85;;
33104;SDS011;19476;51.448;6.674;2022-11-21T11:51:24;23.98;;;10.75;;
33104;SDS011;19476;51.448;6.674;2022-11-21T11:53:57;17.30;;;8.40;;
33104;SDS011;19476;51.448;6.674;2022-11-21T11:56:29;14.60;;;5.75;;
33104;SDS011;19476;51.448;6.674;2022-11-21T11:59:02;11.93;;;5.15;;
33104;SDS011;19476;51.448;6.674;2022-11-21T12:04:22;10.32;;;4.82;;
33104;SDS011;19476;51.448;6.674;2022-11-21T12:06:50;10.43;;;4.55;;
33104;SDS011;19476;51.448;6.674;2022-11-21T12:09:46;7.68;;;3.45;;
33104;SDS011;19476;51.448;6.674;2022-11-21T12:15:19;6.55;;;2.78;;
33104;SDS011;19476;51.448;6.674;2022-11-21T12:21:00;14.23;;;5.60;;
33104;SDS011;19476;51.448;6.674;2022-11-21T12:45:07;4.22;;;1.98;;
33104;SDS011;19476;51.448;6.674;2022-11-21T12:51:10;5.05;;;1.83;;
33104;SDS011;19476;51.448;6.674;2022-11-21T12:57:13;3.40;;;1.48;;
33104;SDS011;19476;51.448;6.674;2022-11-21T13:02:22;5.47;;;2.03;;
33104;SDS011;19476;51.448;6.674;2022-11-21T13:05:00;4.22;;;1.63;;
33104;SDS011;19476;51.448;6.674;2022-11-21T13:07:29;4.85;;;1.40;;
33104;SDS011;19476;51.448;6.674;2022-11-21T13:09:56;2.63;;;1.10;;
33104;SDS011;19476;51.448;6.674;2022-11-21T13:17:48;4.45;;;1.25;;
33104;SDS011;19476;51.448;6.674;2022-11-21T13:20:39;3.83;;;1.00;;
33104;SDS011;19476;51.448;6.674;2022-11-21T13:23:43;3.58;;;1.33;;
33104;SDS011;19476;51.448;6.674;2022-11-21T13:29:13;3.65;;;1.27;;
33104;SDS011;19476;51.448;6.674;2022-11-21T13:31:40;3.53;;;1.33;;
33104;SDS011;19476;51.448;6.674;2022-11-21T13:37:03;2.35;;;1.10;;
33104;SDS011;19476;51.448;6.674;2022-11-21T13:39:30;4.22;;;1.45;;
33104;SDS011;19476;51.448;6.674;2022-11-21T13:42:03;3.70;;;1.30;;
33104;SDS011;19476;51.448;6.674;2022-11-21T13:44:49;4.38;;;1.50;;
33104;SDS011;19476;51.448;6.674;2022-11-21T13:50:02;4.32;;;1.75;;
33104;SDS011;19476;51.448;6.674;2022-11-21T13:52:33;2.75;;;1.50;;
33104;SDS011;19476;51.448;6.674;2022-11-21T13:57:43;4.70;;;1.90;;
33104;SDS011;19476;51.448;6.674;2022-11-21T14:19:59;4.88;;;1.92;;
33104;SDS011;19476;51.448;6.674;2022-11-21T14:22:42;5.82;;;1.90;;
33104;SDS011;19476;51.448;6.674;2022-11-21T14:25:15;5.43;;;1.85;;
33104;SDS011;19476;51.448;6.674;2022-11-21T14:27:47;6.47;;;2.08;;
33104;SDS011;19476;51.448;6.674;2022-11-21T14:30:27;6.60;;;2.03;;
33104;SDS011;19476;51.448;6.674;2022-11-21T14:35:48;5.22;;;1.83;;
33104;SDS011;19476;51.448;6.674;2022-11-21T14:43:59;6.72;;;2.03;;
33104;SDS011;19476;51.448;6.674;2022-11-21T14:46:27;4.68;;;1.90;;
33104;SDS011;19476;51.448;6.674;2022-11-21T14:48:54;5.18;;;1.42;;
33104;SDS011;19476;51.448;6.674;2022-11-21T14:53:52;3.80;;;1.45;;
33104;SDS011;19476;51.448;6.674;2022-11-21T14:56:22;4.55;;;1.77;;
33104;SDS011;19476;51.448;6.674;2022-11-21T14:58:51;6.95;;;2.00;;
33104;SDS011;19476;51.448;6.674;2022-11-21T15:01:28;4.78;;;1.83;;
33104;SDS011;19476;51.448;6.674;2022-11-21T15:03:55;4.70;;;1.73;;
33104;SDS011;19476;51.448;6.674;2022-11-21T15:06:29;7.88;;;2.55;;
33104;SDS011;19476;51.448;6.674;2022-11-21T15:09:04;5.18;;;1.85;;
33104;SDS011;19476;51.448;6.674;2022-11-21T15:14:01;4.22;;;1.52;;
33104;SDS011;19476;51.448;6.674;2022-11-21T15:16:35;7.38;;;2.58;;
33104;SDS011;19476;51.448;6.674;2022-11-21T15:19:06;5.85;;;2.30;;
33104;SDS011;19476;51.448;6.674;2022-11-21T15:21:33;4.60;;;1.98;;
33104;SDS011;19476;51.448;6.674;2022-11-21T15:24:14;5.07;;;1.63;;
33104;SDS011;19476;51.448;6.674;2022-11-21T15:26:51;4.57;;;1.75;;
33104;SDS011;19476;51.448;6.674;2022-11-21T15:29:18;3.35;;;1.40;;
33104;SDS011;19476;51.448;6.674;2022-11-21T15:31:45;4.70;;;1.88;;
33104;SDS011;19476;51.448;6.674;2022-11-21T15:34:11;3.60;;;1.23;;
33104;SDS011;19476;51.448;6.674;2022-11-21T15:39:49;3.83;;;1.58;;
33104;SDS011;19476;51.448;6.674;2022-11-21T15:45:00;4.20;;;1.35;;
33104;SDS011;19476;51.448;6.674;2022-11-21T15:47:26;5.50;;;1.33;;
33104;SDS011;19476;51.448;6.674;2022-11-21T15:49:52;4.05;;;1.35;;
33104;SDS011;19476;51.448;6.674;2022-11-21T15:52:19;3.15;;;1.20;;
33104;SDS011;19476;51.448;6.674;2022-11-21T15:54:45;3.72;;;1.13;;
33104;SDS011;19476;51.448;6.674;2022-11-21T15:57:11;3.05;;;0.80;;
33104;SDS011;19476;51.448;6.674;2022-11-21T15:59:38;2.22;;;1.10;;
33104;SDS011;19476;51.448;6.674;2022-11-21T16:02:04;2.95;;;0.88;;
33104;SDS011;19476;51.448;6.674;2022-11-21T16:04:29;2.05;;;1.08;;
33104;SDS011;19476;51.448;6.674;2022-11-21T16:06:55;3.13;;;0.95;;
33104;SDS011;19476;51.448;6.674;2022-11-21T16:09:21;2.05;;;0.88;;
33104;SDS011;19476;51.448;6.674;2022-11-21T16:11:47;2.92;;;0.75;;
33104;SDS011;19476;51.448;6.674;2022-11-21T16:14:13;2.03;;;0.68;;
33104;SDS011;19476;51.448;6.674;2022-11-21T16:16:41;4.28;;;1.02;;
33104;SDS011;19476;51.448;6.674;2022-11-21T16:19:11;1.45;;;0.80;;
33104;SDS011;19476;51.448;6.674;2022-11-21T16:21:38;2.20;;;0.70;;
33104;SDS011;19476;51.448;6.674;2022-11-21T16:24:05;2.50;;;0.63;;
33104;SDS011;19476;51.448;6.674;2022-11-21T16:26:31;1.60;;;0.60;;
33104;SDS011;19476;51.448;6.674;2022-11-21T16:28:57;1.58;;;0.65;;
33104;SDS011;19476;51.448;6.674;2022-11-21T16:31:28;2.30;;;0.63;;
33104;SDS011;19476;51.448;6.674;2022-11-21T16:33:55;1.85;;;0.60;;
33104;SDS011;19476;51.448;6.674;2022-11-21T16:36:23;2.70;;;0.80;;
33104;SDS011;19476;51.448;6.674;2022-11-21T16:38:51;1.88;;;0.70;;
33104;SDS011;19476;51.448;6.674;2022-11-21T16:41:17;1.25;;;0.70;;
33104;SDS011;19476;51.448;6.674;2022-11-21T16:43:45;3.80;;;0.77;;
33104;SDS011;19476;51.448;6.674;2022-11-21T16:46:13;1.02;;;0.52;;
33104;SDS011;19476;51.448;6.674;2022-11-21T16:48:39;3.58;;;1.08;;
33104;SDS011;19476;51.448;6.674;2022-11-21T16:51:09;3.33;;;0.85;;
33104;SDS011;19476;51.448;6.674;2022-11-21T16:53:38;3.95;;;1.10;;
33104;SDS011;19476;51.448;6.674;2022-11-21T16:56:05;2.55;;;1.05;;
33104;SDS011;19476;51.448;6.674;2022-11-21T16:58:31;2.28;;;1.08;;
33104;SDS011;19476;51.448;6.674;2022-11-21T17:01:05;4.10;;;1.25;;
33104;SDS011;19476;51.448;6.674;2022-11-21T17:03:36;3.78;;;1.00;;
33104;SDS011;19476;51.448;6.674;2022-11-21T17:06:03;2.65;;;1.20;;
33104;SDS011;19476;51.448;6.674;2022-11-21T17:08:30;2.83;;;1.00;;
33104;SDS011;19476;51.448;6.674;2022-11-21T17:10:56;2.30;;;0.82;;
33104;SDS011;19476;51.448;6.674;2022-11-21T17:13:22;1.77;;;0.73;;
33104;SDS011;19476;51.448;6.674;2022-11-21T17:15:50;2.55;;;1.00;;
33104;SDS011;19476;51.448;6.674;2022-11-21T17:18:16;4.22;;;0.98;;
33104;SDS011;19476;51.448;6.674;2022-11-21T17:20:41;4.35;;;1.17;;
33104;SDS011;19476;51.448;6.674;2022-11-21T17:23:07;3.22;;;1.15;;
33104;SDS011;19476;51.448;6.674;2022-11-21T17:25:33;2.72;;;0.80;;
33104;SDS011;19476;51.448;6.674;2022-11-21T17:27:59;1.40;;;0.75;;